createdAt,value
2022-09-30T00:01:29.793Z,1.75
2022-09-30T00:03:57.934Z,2.38
2022-09-30T00:06:29.817Z,1.40
2022-09-30T00:08:58.201Z,1.40
2022-09-30T00:11:29.057Z,2.63
2022-09-30T00:13:57.793Z,1.35
2022-09-30T00:16:27.521Z,1.45
2022-09-30T00:18:56.331Z,1.65
2022-09-30T00:21:23.953Z,1.25
2022-09-30T00:23:51.475Z,1.35
2022-09-30T00:26:21.093Z,1.48
2022-09-30T00:28:53.701Z,0.95
2022-09-30T00:31:22.072Z,1.65
2022-09-30T00:34:09.533Z,2.65
2022-09-30T00:36:45.437Z,1.30
2022-09-30T00:39:19.925Z,1.00
2022-09-30T00:41:50.057Z,0.75
2022-09-30T00:44:51.001Z,0.68
2022-09-30T00:47:49.344Z,1.33
2022-09-30T00:50:34.511Z,2.70
2022-09-30T00:53:08.651Z,1.55
2022-09-30T00:55:59.339Z,1.10
2022-09-30T00:58:49.938Z,1.33
2022-09-30T01:01:18.487Z,1.42
2022-09-30T01:03:51.772Z,1.17
2022-09-30T01:06:22.005Z,0.95
2022-09-30T01:08:49.344Z,1.02
2022-09-30T01:11:17.070Z,2.63
2022-09-30T01:13:49.317Z,1.30
2022-09-30T01:16:43.317Z,1.33
2022-09-30T01:19:47.260Z,0.90
2022-09-30T01:22:29.944Z,0.93
2022-09-30T01:25:31.367Z,1.08
2022-09-30T01:28:38.133Z,1.83
2022-09-30T01:31:44.923Z,1.05
2022-09-30T01:34:27.247Z,1.35
2022-09-30T01:37:23.634Z,0.70
2022-09-30T01:40:24.057Z,0.80
2022-09-30T01:45:38.173Z,0.80
2022-09-30T01:48:39.380Z,0.80
2022-09-30T01:51:20.708Z,0.98
2022-09-30T01:53:57.109Z,1.10
2022-09-30T01:56:41.662Z,1.35
2022-09-30T01:59:23.611Z,1.52
2022-09-30T02:01:58.985Z,1.00
2022-09-30T02:04:34.909Z,1.98
2022-09-30T02:07:07.960Z,0.85
2022-09-30T02:09:49.395Z,0.85
2022-09-30T02:12:21.005Z,0.80
2022-09-30T02:15:08.506Z,0.60
2022-09-30T02:17:46.910Z,1.10
2022-09-30T02:20:26.476Z,0.82
2022-09-30T02:23:01.511Z,0.50
2022-09-30T02:25:38.528Z,0.90
2022-09-30T02:28:08.792Z,0.75
2022-09-30T02:30:39.313Z,1.13
2022-09-30T02:33:12.771Z,0.65
2022-09-30T02:35:49.083Z,1.75
2022-09-30T02:38:19.942Z,1.10
2022-09-30T02:40:53.132Z,0.82
2022-09-30T02:43:21.721Z,0.88
2022-09-30T02:46:22.148Z,0.73
2022-09-30T02:51:27.508Z,0.52
2022-09-30T02:54:20.491Z,1.40
2022-09-30T02:57:18.864Z,1.42
2022-09-30T02:59:49.033Z,0.80
2022-09-30T03:02:16.199Z,2.05
2022-09-30T03:04:45.676Z,1.50
2022-09-30T03:07:13.259Z,0.80
2022-09-30T03:09:40.850Z,1.42
2022-09-30T03:12:40.093Z,0.70
2022-09-30T03:15:46.843Z,1.55
2022-09-30T03:18:27.832Z,0.55
2022-09-30T03:21:27.241Z,0.70
2022-09-30T03:24:32.038Z,1.40
2022-09-30T03:27:40.340Z,0.85
2022-09-30T03:30:11.805Z,0.70
2022-09-30T03:33:10.171Z,0.70
2022-09-30T03:36:02.119Z,0.95
2022-09-30T03:38:56.363Z,0.65
2022-09-30T03:41:32.031Z,0.90
2022-09-30T03:44:19.075Z,0.55
2022-09-30T03:46:51.948Z,0.93
2022-09-30T03:49:32.210Z,1.23
2022-09-30T03:52:00.451Z,0.50
2022-09-30T03:54:27.539Z,0.75
2022-09-30T03:56:54.612Z,0.85
2022-09-30T03:59:28.972Z,0.60
2022-09-30T04:01:57.765Z,0.88
2022-09-30T04:04:25.209Z,0.57
2022-09-30T04:06:52.244Z,1.80
2022-09-30T04:09:19.502Z,0.88
2022-09-30T04:11:46.593Z,0.93
2022-09-30T04:14:13.604Z,0.60
2022-09-30T04:16:40.810Z,0.55
2022-09-30T04:19:07.901Z,0.65
2022-09-30T04:21:34.953Z,0.55
2022-09-30T04:24:02.066Z,0.50
2022-09-30T04:26:29.171Z,0.70
2022-09-30T04:28:58.758Z,0.60
2022-09-30T04:31:26.019Z,0.43
2022-09-30T04:33:52.991Z,0.60
2022-09-30T04:36:20.579Z,0.50
2022-09-30T04:38:47.575Z,1.10
2022-09-30T04:41:17.464Z,2.08
2022-09-30T04:43:47.072Z,1.58
2022-09-30T04:46:16.040Z,0.68
2022-09-30T04:48:46.064Z,0.73
2022-09-30T04:51:15.131Z,0.32
2022-09-30T04:53:42.818Z,2.03
2022-09-30T04:56:10.677Z,0.50
2022-09-30T04:58:37.925Z,0.55
2022-09-30T05:01:10.327Z,0.80
2022-09-30T05:03:38.429Z,0.80
2022-09-30T05:06:06.605Z,0.80
2022-09-30T05:08:33.984Z,0.95
2022-09-30T05:11:04.706Z,1.02
2022-09-30T05:13:34.355Z,1.15
2022-09-30T05:16:02.351Z,1.10
2022-09-30T05:18:30.200Z,0.90
2022-09-30T05:20:58.465Z,1.02
2022-09-30T05:23:26.978Z,0.88
2022-09-30T05:25:54.291Z,0.70
2022-09-30T05:28:21.360Z,5.45
2022-09-30T05:34:29.153Z,0.93
2022-09-30T05:36:56.882Z,3.50
2022-09-30T05:39:23.948Z,1.52
2022-09-30T05:54:17.132Z,2.78
2022-09-30T05:56:44.317Z,4.07
2022-09-30T05:59:11.324Z,1.38
2022-09-30T06:01:38.890Z,5.63
2022-09-30T06:04:05.939Z,0.65
2022-09-30T06:06:32.972Z,0.90
2022-09-30T06:09:00.428Z,1.08
2022-09-30T06:11:27.561Z,1.00
2022-09-30T06:14:20.041Z,1.38
2022-09-30T06:16:47.395Z,4.22
2022-09-30T06:19:14.603Z,1.63
2022-09-30T06:21:41.831Z,0.77
2022-09-30T06:24:13.083Z,0.95
2022-09-30T06:27:18.953Z,1.88
2022-09-30T06:29:45.951Z,1.50
2022-09-30T06:32:13.284Z,1.80
2022-09-30T06:34:40.274Z,4.80
2022-09-30T06:40:39.268Z,5.82
2022-09-30T06:43:06.820Z,7.10
2022-09-30T06:46:30.973Z,12.20
2022-09-30T06:49:14.550Z,9.73
2022-09-30T06:56:18.734Z,9.70
2022-09-30T06:58:46.996Z,3.60
2022-09-30T07:01:15.331Z,4.18
2022-09-30T07:03:45.210Z,10.95
2022-09-30T07:06:14.617Z,14.15
2022-09-30T07:08:41.814Z,15.13
2022-09-30T07:11:17.123Z,6.60
2022-09-30T07:13:46.031Z,3.80
2022-09-30T07:16:19.320Z,5.95
2022-09-30T07:18:46.896Z,4.88
2022-09-30T07:21:16.322Z,3.45
2022-09-30T07:23:48.426Z,4.40
2022-09-30T07:26:18.177Z,11.75
2022-09-30T07:28:46.220Z,3.88
2022-09-30T07:34:09.255Z,1.33
2022-09-30T07:37:18.711Z,2.40
2022-09-30T07:39:48.340Z,4.13
2022-09-30T07:42:22.767Z,1.10
2022-09-30T07:44:52.412Z,3.33
2022-09-30T07:47:21.124Z,2.27
2022-09-30T07:53:29.144Z,2.05
2022-09-30T07:55:56.185Z,4.97
2022-09-30T07:58:23.233Z,4.53
2022-09-30T08:00:50.950Z,4.75
2022-09-30T08:07:26.494Z,2.65
2022-09-30T08:09:53.518Z,4.38
2022-09-30T08:12:20.622Z,1.85
2022-09-30T08:14:47.627Z,7.18
2022-09-30T08:35:06.193Z,1.83
2022-09-30T08:41:53.937Z,5.22
2022-09-30T08:49:16.904Z,4.90
2022-09-30T08:55:54.877Z,4.05
2022-09-30T08:58:28.310Z,1.48
2022-09-30T09:01:06.937Z,1.27
2022-09-30T09:03:34.314Z,2.17
2022-09-30T09:10:24.269Z,1.35
2022-09-30T09:20:38.302Z,3.22
2022-09-30T09:23:10.553Z,1.80
2022-09-30T09:25:38.071Z,2.35
2022-09-30T09:32:30.812Z,3.83
2022-09-30T09:35:02.018Z,3.85
2022-09-30T09:38:14.916Z,1.40
2022-09-30T09:48:15.900Z,3.92
2022-09-30T09:50:56.991Z,4.72
2022-09-30T09:53:53.056Z,3.63
2022-09-30T09:56:22.042Z,3.05
2022-09-30T10:02:32.684Z,1.08
2022-09-30T10:05:18.103Z,2.17
2022-09-30T10:12:17.839Z,2.33
2022-09-30T10:15:13.074Z,3.00
2022-09-30T10:17:40.435Z,1.10
2022-09-30T10:20:32.482Z,1.25
2022-09-30T10:23:18.641Z,1.33
2022-09-30T10:30:18.111Z,1.05
2022-09-30T10:32:45.126Z,1.42
2022-09-30T10:35:23.544Z,0.88
2022-09-30T10:37:54.993Z,4.05
2022-09-30T10:40:27.709Z,1.40
2022-09-30T10:47:36.939Z,2.50
2022-09-30T10:53:03.548Z,2.58
2022-09-30T10:59:31.949Z,1.73
2022-09-30T11:02:16.897Z,1.27
2022-09-30T11:17:33.911Z,5.85
2022-09-30T11:20:15.229Z,2.50
2022-09-30T11:23:00.752Z,3.70
2022-09-30T11:25:47.788Z,6.63
2022-09-30T11:39:11.026Z,3.50
2022-09-30T11:41:48.659Z,6.75
2022-09-30T11:44:35.962Z,1.48
2022-09-30T11:48:18.839Z,4.63
2022-09-30T11:51:25.595Z,6.43
2022-09-30T12:05:46.189Z,1.00
2022-09-30T12:08:27.183Z,3.53
2022-09-30T12:11:00.372Z,2.92
2022-09-30T12:17:20.047Z,1.17
2022-09-30T12:19:51.364Z,1.58
2022-09-30T12:22:36.744Z,3.15
2022-09-30T12:25:12.993Z,2.65
2022-09-30T12:28:45.345Z,6.45
2022-09-30T12:31:42.482Z,1.88
2022-09-30T12:34:49.277Z,2.13
2022-09-30T12:37:56.061Z,4.40
2022-09-30T12:40:51.569Z,2.70
2022-09-30T12:43:59.294Z,3.67
2022-09-30T12:47:03.562Z,1.73
2022-09-30T12:49:33.234Z,2.20
2022-09-30T12:52:21.696Z,3.75
2022-09-30T12:54:57.374Z,4.25
2022-09-30T12:57:31.050Z,3.65
2022-09-30T13:00:05.190Z,3.33
2022-09-30T13:06:23.880Z,4.00
2022-09-30T13:09:21.274Z,3.33
2022-09-30T13:12:13.680Z,2.97
2022-09-30T13:14:45.398Z,1.92
2022-09-30T13:17:26.767Z,1.65
2022-09-30T13:19:59.300Z,1.40
2022-09-30T13:22:42.476Z,0.80
2022-09-30T13:25:15.010Z,1.48
2022-09-30T13:28:05.504Z,1.17
2022-09-30T13:30:34.704Z,1.85
2022-09-30T13:33:26.871Z,3.83
2022-09-30T13:35:59.245Z,2.05
2022-09-30T13:38:40.567Z,0.82
2022-09-30T13:41:24.940Z,1.02
2022-09-30T13:44:07.256Z,0.73
2022-09-30T13:46:54.684Z,2.95
2022-09-30T13:50:01.491Z,1.20
2022-09-30T13:52:35.282Z,0.68
2022-09-30T13:55:11.391Z,0.40
2022-09-30T13:58:05.025Z,1.02
2022-09-30T14:00:53.372Z,0.55
2022-09-30T14:04:00.269Z,0.50
2022-09-30T14:07:00.765Z,2.25
2022-09-30T14:10:09.646Z,1.50
2022-09-30T14:13:03.888Z,0.43
2022-09-30T14:16:10.693Z,0.43
2022-09-30T14:19:02.973Z,1.08
2022-09-30T14:21:53.425Z,0.50
2022-09-30T14:24:27.189Z,3.85
2022-09-30T14:27:16.691Z,3.45
2022-09-30T14:30:09.720Z,1.05
2022-09-30T14:32:57.883Z,2.67
2022-09-30T14:35:34.402Z,0.85
2022-09-30T14:38:18.310Z,3.00
2022-09-30T14:40:56.454Z,1.80
2022-09-30T14:43:29.027Z,0.55
2022-09-30T14:45:58.135Z,1.13
2022-09-30T14:48:33.514Z,0.82
2022-09-30T14:51:14.405Z,0.40
2022-09-30T14:53:52.741Z,0.60
2022-09-30T14:56:22.924Z,0.75
2022-09-30T15:03:58.039Z,0.70
2022-09-30T15:06:28.170Z,0.50
2022-09-30T15:09:05.133Z,0.40
2022-09-30T15:11:39.354Z,0.80
2022-09-30T15:14:14.113Z,0.55
2022-09-30T15:16:53.624Z,0.65
2022-09-30T15:19:26.033Z,0.70
2022-09-30T15:21:55.970Z,0.60
2022-09-30T15:24:25.844Z,0.57
2022-09-30T15:26:54.158Z,2.10
2022-09-30T15:29:21.226Z,0.60
2022-09-30T15:31:55.524Z,1.45
2022-09-30T15:34:25.617Z,0.50
2022-09-30T15:37:07.031Z,1.27
2022-09-30T15:40:06.039Z,0.43
2022-09-30T15:42:45.702Z,1.40
2022-09-30T15:45:35.845Z,0.85
2022-09-30T15:48:33.576Z,0.73
2022-09-30T15:51:01.579Z,0.40
2022-09-30T15:53:47.956Z,0.55
2022-09-30T15:56:36.678Z,0.70
2022-09-30T15:59:09.526Z,0.40
2022-09-30T16:01:39.858Z,0.57
2022-09-30T16:04:24.489Z,2.38
2022-09-30T16:06:57.533Z,1.25
2022-09-30T16:09:35.719Z,0.30
2022-09-30T16:12:15.210Z,0.60
2022-09-30T16:15:07.180Z,0.57
2022-09-30T16:17:38.157Z,0.70
2022-09-30T16:20:22.418Z,0.77
2022-09-30T16:22:55.143Z,0.73
2022-09-30T16:25:28.404Z,0.40
2022-09-30T16:28:00.733Z,0.32
2022-09-30T16:30:28.983Z,0.52
2022-09-30T16:32:59.725Z,0.75
2022-09-30T16:35:28.722Z,1.75
2022-09-30T16:38:04.778Z,1.63
2022-09-30T16:40:33.280Z,0.88
2022-09-30T16:43:03.264Z,1.55
2022-09-30T16:45:33.131Z,0.40
2022-09-30T16:48:01.898Z,0.77
2022-09-30T16:50:53.490Z,0.52
2022-09-30T16:53:20.604Z,1.05
2022-09-30T16:55:48.335Z,0.60
2022-09-30T16:58:16.232Z,0.60
2022-09-30T17:00:47.286Z,0.32
2022-09-30T17:03:16.958Z,0.68
2022-09-30T17:05:46.016Z,0.85
2022-09-30T17:08:16.275Z,2.42
2022-09-30T17:13:11.118Z,0.57
2022-09-30T17:15:38.111Z,0.73
2022-09-30T17:18:07.717Z,1.10
2022-09-30T17:20:35.388Z,1.17
2022-09-30T17:23:07.123Z,0.77
2022-09-30T17:25:34.728Z,1.65
2022-09-30T17:28:01.941Z,0.65
2022-09-30T17:30:29.072Z,0.82
2022-09-30T17:32:56.068Z,0.50
2022-09-30T17:35:23.098Z,0.85
2022-09-30T17:37:50.189Z,0.50
2022-09-30T17:40:37.371Z,0.47
2022-09-30T17:43:07.444Z,0.52
2022-09-30T17:45:35.872Z,0.75
2022-09-30T17:48:03.227Z,0.73
2022-09-30T17:50:30.279Z,0.73
2022-09-30T17:52:57.480Z,0.40
2022-09-30T17:55:24.796Z,0.40
2022-09-30T17:57:54.284Z,0.57
2022-09-30T18:00:21.566Z,0.50
2022-09-30T18:02:48.680Z,0.77
2022-09-30T18:05:16.974Z,0.50
2022-09-30T18:07:45.760Z,0.80
2022-09-30T18:10:14.011Z,1.27
2022-09-30T18:12:41.099Z,0.60
2022-09-30T18:15:08.802Z,0.85
2022-09-30T18:17:36.329Z,2.25
2022-09-30T18:20:03.539Z,0.95
2022-09-30T18:22:30.619Z,0.40
2022-09-30T18:25:17.516Z,0.90
2022-09-30T18:27:44.593Z,0.60
2022-09-30T18:30:12.097Z,0.68
2022-09-30T18:32:39.963Z,5.10
2022-09-30T18:35:12.190Z,0.75
2022-09-30T18:37:42.395Z,1.95
2022-09-30T18:40:10.172Z,1.30
2022-09-30T18:42:38.003Z,0.98
2022-09-30T18:45:06.703Z,0.60
2022-09-30T18:47:34.036Z,1.15
2022-09-30T18:50:01.122Z,1.13
2022-09-30T18:52:28.176Z,3.85
2022-09-30T18:54:55.319Z,1.27
2022-09-30T18:57:22.353Z,0.77
2022-09-30T18:59:49.339Z,2.35
2022-09-30T19:02:18.225Z,1.08
2022-09-30T19:04:47.437Z,2.58
2022-09-30T19:07:14.957Z,1.10
2022-09-30T19:09:42.228Z,3.63
2022-09-30T19:12:09.234Z,0.82
2022-09-30T19:14:38.069Z,3.55
2022-09-30T19:17:05.057Z,0.80
2022-09-30T19:19:32.482Z,1.00
2022-09-30T19:22:01.491Z,1.33
2022-09-30T19:24:28.640Z,1.65
2022-09-30T19:26:55.771Z,1.13
2022-09-30T19:29:23.690Z,1.50
2022-09-30T19:31:50.874Z,1.52
2022-09-30T19:34:29.822Z,1.30
2022-09-30T19:37:00.060Z,1.73
2022-09-30T19:39:37.631Z,7.80
2022-09-30T19:42:09.402Z,1.45
2022-09-30T19:44:37.033Z,2.08
2022-09-30T19:47:04.029Z,1.65
2022-09-30T19:49:31.247Z,3.10
2022-09-30T19:51:58.219Z,1.15
2022-09-30T19:54:36.999Z,2.53
2022-09-30T19:57:11.074Z,1.80
2022-09-30T19:59:38.123Z,2.08
2022-09-30T20:02:05.270Z,3.17
2022-09-30T20:04:34.297Z,2.10
2022-09-30T20:07:01.584Z,3.42
2022-09-30T20:09:28.690Z,2.75
2022-09-30T20:11:55.730Z,1.70
2022-09-30T20:14:42.630Z,4.63
2022-09-30T20:17:09.684Z,2.90
2022-09-30T20:19:36.759Z,1.95
2022-09-30T20:22:04.862Z,2.95
2022-09-30T20:24:32.145Z,3.00
2022-09-30T20:26:59.248Z,3.97
2022-09-30T20:29:27.127Z,3.28
2022-09-30T20:31:54.264Z,2.28
2022-09-30T20:34:21.390Z,2.50
2022-09-30T20:36:48.576Z,2.35
2022-09-30T20:39:15.636Z,2.65
2022-09-30T20:41:42.731Z,3.08
2022-09-30T20:44:18.974Z,2.40
2022-09-30T20:46:46.358Z,2.78
2022-09-30T20:49:13.433Z,2.97
2022-09-30T20:51:40.478Z,2.85
2022-09-30T20:54:07.625Z,3.15
2022-09-30T20:56:49.988Z,3.35
2022-09-30T20:59:21.720Z,4.53
2022-09-30T21:01:48.828Z,4.43
2022-09-30T21:04:15.881Z,2.80
2022-09-30T21:06:42.935Z,2.92
2022-09-30T21:09:12.693Z,2.63
2022-09-30T21:11:42.502Z,3.95
2022-09-30T21:14:09.616Z,2.58
2022-09-30T21:16:36.708Z,2.78
2022-09-30T21:19:03.939Z,3.88
2022-09-30T21:21:31.242Z,2.92
2022-09-30T21:24:00.002Z,5.07
2022-09-30T21:26:27.504Z,4.93
2022-09-30T21:28:54.543Z,2.63
2022-09-30T21:31:25.001Z,3.00
2022-09-30T21:33:53.850Z,2.20
2022-09-30T21:36:21.427Z,2.58
2022-09-30T21:38:49.862Z,3.70
2022-09-30T21:41:17.891Z,2.85
2022-09-30T21:43:44.988Z,3.72
2022-09-30T21:46:14.850Z,2.38
2022-09-30T21:48:42.717Z,2.38
2022-09-30T21:51:10.286Z,2.58
2022-09-30T21:53:39.065Z,2.42
2022-09-30T21:56:07.581Z,3.30
2022-09-30T21:58:34.836Z,2.20
2022-09-30T22:01:05.103Z,3.20
2022-09-30T22:06:07.574Z,5.25
2022-09-30T22:08:40.833Z,3.42
2022-09-30T22:11:11.348Z,3.42
2022-09-30T22:13:40.956Z,2.85
2022-09-30T22:16:08.537Z,2.80
2022-09-30T22:18:36.134Z,2.50
2022-09-30T22:21:07.062Z,2.40
2022-09-30T22:23:34.411Z,2.63
2022-09-30T22:26:14.158Z,2.90
2022-09-30T22:28:41.221Z,3.47
2022-09-30T22:31:20.418Z,2.30
2022-09-30T22:34:12.597Z,2.55
2022-09-30T22:36:59.729Z,4.45
2022-09-30T22:39:27.583Z,2.33
2022-09-30T22:41:56.275Z,2.22
2022-09-30T22:44:25.781Z,2.03
2022-09-30T22:46:53.675Z,1.92
2022-09-30T22:49:21.508Z,2.63
2022-09-30T22:51:53.128Z,2.45
2022-09-30T22:54:21.022Z,3.97
2022-09-30T22:56:51.929Z,1.85
2022-09-30T22:59:20.571Z,2.85
2022-09-30T23:01:49.346Z,2.13
2022-09-30T23:04:17.583Z,2.03
2022-09-30T23:06:48.479Z,3.05
2022-09-30T23:09:16.351Z,2.45
2022-09-30T23:11:44.530Z,2.33
2022-09-30T23:14:12.314Z,3.17
2022-09-30T23:16:39.536Z,2.20
2022-09-30T23:19:06.590Z,1.80
2022-09-30T23:21:34.367Z,2.05
2022-09-30T23:24:02.126Z,2.92
2022-09-30T23:26:30.128Z,1.63
2022-09-30T23:28:59.100Z,1.95
2022-09-30T23:31:27.017Z,1.83
2022-09-30T23:33:56.600Z,1.80
2022-09-30T23:36:32.363Z,2.33
2022-09-30T23:39:05.312Z,1.83
2022-09-30T23:41:34.447Z,2.53
2022-09-30T23:44:01.924Z,2.33
2022-09-30T23:46:29.003Z,2.38
2022-09-30T23:48:56.093Z,2.05
2022-09-30T23:51:23.589Z,1.83
2022-09-30T23:53:51.483Z,2.30
2022-09-30T23:56:19.379Z,2.25
2022-09-30T23:58:47.591Z,3.30
